• Join FlightAware (Why Join?)
  • Login
  • US Flag 
01:21PM EDT


 

Airport Tracker/Info


-or-


 

Live Flight TrackerFlight Track Log ✈ GJS3706 ✈ 08-May-2013 ✈ KPWM - KORD

Flight Track Log - Related Links

Times and Time Zones

All times are in EDT time to prevent confusion due to time zone crossing. See the GJS3706 flight status page for this flight to view local times or setup timezone preferences in your user account.

Time Position Orientation Groundspeed Altitude Reporting Facility
EDT Latitude Longitude Course Direction KTS MPH feet Rate Location/Type
07:02AM 43.6681 -70.5142 255° West 261 300 5,000  Level Boston Center
07:03AM 43.6886 -70.6311 284° West 280 322 7,900 2,640 Climbing Boston Center
07:04AM 43.7089 -70.7283 286° West 286 329 10,300 1,980 Climbing Boston Center
07:05AM 43.6942 -70.8578 261° West 302 348 11,900 1,680 Climbing Boston Center
07:06AM 43.6728 -70.9733 256° West 333 383 13,700 1,860 Climbing Boston Center
07:07AM 43.6981 -70.8662 243° Southwest  Level FlightAware Approximate
07:07AM 43.6453 -71.1231 256° West 359 413 15,700  Level Boston Center
07:08AM 43.6565 -71.0011 255° West  Level FlightAware Approximate
07:08AM 43.6197 -71.2614 256° West 369 425 17,800  Level Boston Center
07:09AM 43.5942 -71.4053 256° West 379 436 19,000 1,200 Climbing Boston Center
07:10AM 43.5700 -71.5347 256° West 391 450 20,300 1,500 Climbing Boston Center
07:11AM 43.5419 -71.6897 256° West 404 465 22,100 1,560 Climbing Boston Center
07:12AM 43.5117 -71.8389 254° West 404 465 23,500 1,320 Climbing Boston Center
07:13AM 43.4833 -71.9908 256° West 410 472 24,800 1,260 Climbing Boston Center
07:14AM 43.4544 -72.1456 256° West 416 479 26,100 1,200 Climbing Boston Center
07:15AM 43.4236 -72.3058 255° West 416 479 27,200 960 Climbing Boston Center
07:16AM 43.3944 -72.4658 256° West 421 484 28,100 900 Climbing Boston Center
07:17AM 43.3819 -72.6344 264° West 439 505 29,100 1,020 Climbing Boston Center
07:18AM 43.3753 -72.8028 267° West 445 512 30,200 1,080 Climbing Boston Center
07:19AM 43.3683 -72.9714 267° West 445 512 31,300 1,080 Climbing Boston Center
07:20AM 43.3589 -73.1425 266° West 445 512 32,400 960 Climbing Boston Center
07:21AM 43.3494 -73.3108 266° West 445 512 33,300 900 Climbing Boston Center
07:22AM 43.3356 -73.4933 264° West 445 512 34,200 840 Climbing Boston Center
07:23AM 43.3256 -73.6589 265° West 445 512 35,000 660 Climbing Boston Center
07:24AM 43.3175 -73.8156 266° West 445 512 35,600 600 Climbing Boston Center
07:25AM 43.3089 -73.9867 266° West 445 512 36,200 600 Climbing Boston Center
07:26AM 43.2983 -74.1517 265° West 445 512 36,800 600 Climbing Boston Center
07:27AM 43.2894 -74.3256 266° West 445 512 37,400 540 Climbing Boston Center
07:28AM 43.2781 -74.4933 265° West 445 512 37,900 300 Climbing Boston Center
07:29AM 43.2708 -74.6642 267° West 450 518 38,000  Climbing Boston Center
07:30AM 43.2672 -74.8325 268° West 450 518 38,000  Level Boston Center
07:31AM 43.2656 -75.0036 269° West 450 518 38,000  Level Boston Center
07:32AM 43.2614 -75.1886 268° West 450 518 38,000  Level Boston Center
07:33AM 43.2636 -75.3483 271° West 455 524 38,000  Level Boston Center
07:34AM 43.2608 -75.5367 269° West 461 531 38,000  Level Boston Center
07:35AM 43.2581 -75.7075 269° West 456 525 38,000  Level Boston Center
07:36AM 43.2583 -75.8417 270° West 456 525 38,000  Level Boston Center
07:38AM 43.2500 -76.1875 268° West 454 522 38,000  Level Cleveland Center
07:39AM 43.2461 -76.3589 268° West 454 522 38,000  Level Cleveland Center
07:40AM 43.2417 -76.5303 268° West 454 522 38,000  Level Cleveland Center
07:41AM 43.2372 -76.7072 268° West 464 534 38,000  Level Cleveland Center
07:42AM 43.2325 -76.8817 268° West 464 534 38,000  Level Cleveland Center
07:43AM 43.2281 -77.0728 268° West 464 534 38,000  Level Cleveland Center
07:44AM 43.2208 -77.2469 267° West 464 534 38,000  Level Cleveland Center
07:45AM 43.2175 -77.4239 269° West 464 534 38,000  Level Cleveland Center
07:46AM 43.2117 -77.6036 268° West 469 540 38,000  Level Cleveland Center
07:47AM 43.2058 -77.7806 267° West 469 540 38,000  Level Cleveland Center
07:48AM 43.1994 -77.9575 267° West 469 540 38,000  Level Cleveland Center
07:49AM 43.1931 -78.1372 267° West 469 540 38,000  Level Cleveland Center
07:50AM 43.1842 -78.3139 266° West 469 540 38,000  Level Cleveland Center
07:51AM 43.1792 -78.4936 268° West 474 545 38,000  Level Cleveland Center
07:52AM 43.1717 -78.6703 267° West 474 545 38,000  Level Cleveland Center
07:53AM 43.1642 -78.8469 267° West 474 545 38,000  Level Cleveland Center
07:54AM 43.1542 -79.0239 266° West 474 545 38,000  Level Cleveland Center
07:55AM 43.1333 -79.1000 249° West 470 541 38,000  Level Toronto Center
07:56AM 43.1333 -79.2833 270° West 470 541 38,000  Level Toronto Center
07:57AM 43.1167 -79.4667 263° West 470 541 38,000  Level Toronto Center
07:58AM 43.1167 -79.6333 270° West 470 541 38,000  Level Toronto Center
07:59AM 43.1000 -79.8167 263° West 460 529 38,000  Level Toronto Center
08:00AM 43.1000 -80.0000 270° West 460 529 38,000  Level Toronto Center
08:01AM 43.0833 -80.1833 263° West 460 529 38,000  Level Toronto Center
08:02AM 43.0833 -80.3333 270° West 460 529 38,000  Level Toronto Center
08:03AM 43.0833 -80.5167 270° West 460 529 38,000  Level Toronto Center
08:04AM 43.1500 -80.6667 301° West 460 529 38,000  Level Toronto Center
08:05AM 43.2333 -80.8000 311° West 460 529 38,000  Level Toronto Center
08:06AM 43.2833 -80.9333 297° West 460 529 38,000  Level Toronto Center
08:07AM 43.3000 -81.1167 277° West 450 518 38,000  Level Toronto Center
08:08AM 43.2833 -81.2833 262° West 450 518 38,000  Level Toronto Center
08:09AM 43.2667 -81.4667 263° West 450 518 38,000  Level Toronto Center
08:10AM 43.2500 -81.6167 261° West 450 518 38,000  Level Toronto Center
08:11AM 43.2333 -81.7833 262° West 460 529 38,000  Level Toronto Center
08:12AM 43.2000 -81.9667 256° West 450 518 38,000  Level Toronto Center
08:13AM 43.1833 -82.1333 262° West 450 518 38,000  Level Toronto Center
08:14AM 43.1667 -82.3000 262° West 450 518 38,000  Level Toronto Center
08:15AM 43.1333 -82.4667 255° West 450 518 38,000 -240 Level Toronto Center
08:16AM 43.1206 -82.6794 265° West 456 525 37,500 -840 Descending Cleveland Center
08:17AM 43.1217 -82.8444 271° West 449 517 36,200 -1,380 Descending Cleveland Center
08:18AM 43.1392 -83.0100 278° West 439 505 34,800 -1,500 Descending Cleveland Center
08:19AM 43.1561 -83.1844 278° West 452 520 33,200 -1,440 Descending Cleveland Center
08:20AM 43.1772 -83.3506 280° West 452 520 32,000 -600 Descending Cleveland Center
08:21AM 43.1814 -83.5214 272° West 447 514 32,000  Level Cleveland Center
08:22AM 43.1417 -83.6817 251° West 434 499 32,000  Level Cleveland Center
08:23AM 43.0933 -83.8472 248° West 451 519 32,000  Level Cleveland Center
08:24AM 43.0492 -84.0097 250° West 458 527 32,000  Level Cleveland Center
08:25AM 43.0025 -84.1689 248° West 458 527 32,000  Level Cleveland Center
08:27AM 42.9167 -84.4667 249° West 450 518 32,000  Level Toronto Center
08:27AM 42.9006 -84.5208 248° West 454 522 32,000  Level Chicago Center
08:28AM 42.8733 -84.6881 258° West 455 524 32,000  Level Chicago Center
08:29AM 42.8556 -84.8589 262° West 456 525 32,000  Level Chicago Center
08:30AM 42.8375 -85.0283 262° West 455 524 32,000  Level Chicago Center
08:31AM 42.8153 -85.2317 262° West 454 522 32,000 -660 Level Chicago Center
08:33AM 42.7964 -85.4039 262° West 459 528 30,700 -1,680 Descending Chicago Center
08:34AM 42.7722 -85.5783 259° West 467 537 28,600 -2,040 Descending Chicago Center
08:35AM 42.7417 -85.7436 256° West 452 520 26,500 -2,040 Descending Chicago Center
08:36AM 42.7133 -85.9011 256° West 434 499 24,400 -2,100 Descending Chicago Center
08:37AM 42.6853 -86.0547 256° West 420 483 22,200 -1,920 Descending Chicago Center
08:38AM 42.6572 -86.2061 256° West 414 476 20,500 -1,200 Descending Chicago Center
08:39AM 42.6294 -86.3506 255° West 399 459 19,800 -1,440 Descending Chicago Center
08:40AM 42.5958 -86.5214 255° West 390 449 17,600 -2,040 Descending Chicago Center
08:41AM 42.5706 -86.6608 256° West 381 438 15,700 -1,860 Descending Chicago Center
08:42AM 42.5428 -86.7961 254° West 375 432 13,800 -1,740 Descending Chicago Center
08:43AM 42.5078 -86.9228 249° West 363 418 12,200 -1,500 Descending Chicago Center
08:44AM 42.4739 -87.0483 250° West 357 411 10,700 -1,080 Descending Chicago Center
08:45AM 42.4400 -87.1603 248° West 327 376 10,000 -360 Descending Chicago Center
08:46AM 42.4089 -87.2758 250° West 327 376 10,000  Level Chicago Center
08:47AM 42.3744 -87.3981 249° West 323 372 10,000  Level Chicago Center
08:48AM 42.3436 -87.5114 250° West 324 373 10,000  Level Chicago Center
08:49AM 42.2658 -87.6119 224° Southwest 331 381 10,000  Level Chicago Center
08:50AM 42.1936 -87.6867 217° Southwest 329 379 10,000  Level Chicago Center
08:51AM 42.1239 -87.7603 218° Southwest 320 368 10,000 -780 Level Chicago Center
08:52AM 42.0917 -87.8469 243° Southwest 279 321 8,400 -1,380 Descending Chicago Center
08:53AM 42.0833 -87.9500 264° West 235 270 7,100 -660 Descending Chicago TRACON
08:54AM 42.0833 -88.0500 270° West 234 269 7,000 -540 Descending Chicago TRACON
08:55AM 42.0833 -88.1333 270° West 231 266 6,000 -1,020 Descending Chicago TRACON
08:56AM 42.0833 -88.2167 270° West 221 254 5,000 -540 Descending Chicago TRACON
08:57AM 42.0889 -88.2861 276° West 213 245 5,000  Level Chicago Center
08:58AM 42.0478 -88.3061 200° South 192 221 5,000  Level Chicago Center
08:59AM 41.9967 -88.2714 153° Southeast 183 211 5,000  Level Chicago Center
09:00AM 41.9706 -88.2103 120° Southeast 189 217 5,000 -540 Level Chicago Center
09:01AM 41.9672 -88.1406 94° East 187 215 3,900 -1,200 Descending Chicago Center
09:02AM 41.9667 -88.0667 91° East 182 209 2,700 -1,080 Descending Chicago TRACON
09:03AM 41.9667 -88.0000 90° East 150 173 1,800 -780 Descending Chicago TRACON
09:04AM 41.9667 -87.9500 90° East 142 163 1,100 -720 Descending Chicago TRACON